Time,TemperatureF,DewpointF,PressureIn,WindDirection,WindDirectionDegrees,WindSpeedMPH,WindSpeedGustMPH,Humidity,HourlyPrecipIn,Conditions,Clouds,dailyrainin,SolarRadiationWatts/m^2,SoftwareType,DateUTC
2013-07-27 00:03:00,61.8,57.0,30.30,SSW,209,1.0,5.0,84,0.00,,,0.00,0,weatherlink.com 1.10,2013-07-27 08:03:00,
2013-07-27 00:18:00,62.0,57.0,30.30,SSW,209,1.0,6.0,84,0.00,,,0.00,0,weatherlink.com 1.10,2013-07-27 08:18:00,
2013-07-27 00:33:00,62.1,57.0,30.30,SSW,205,1.0,4.0,84,0.00,,,0.00,0,weatherlink.com 1.10,2013-07-27 08:33:00,
2013-07-27 00:48:00,62.2,57.0,30.31,SSW,204,2.0,4.0,83,0.00,,,0.00,0,weatherlink.com 1.10,2013-07-27 08:48:00,
2013-07-27 01:03:00,62.2,57.0,30.31,SSW,205,0.0,0.0,84,0.00,,,0.00,0,weatherlink.com 1.10,2013-07-27 09:03:00,
2013-07-27 01:18:00,62.3,57.0,30.31,SSW,205,0.0,1.0,84,0.00,,,0.00,0,weatherlink.com 1.10,2013-07-27 09:18:00,
2013-07-27 01:33:00,62.2,57.0,30.31,SSW,205,0.0,4.0,84,0.00,,,0.00,0,weatherlink.com 1.10,2013-07-27 09:33:00,
2013-07-27 01:48:00,62.3,57.0,30.31,SSW,205,0.0,2.0,84,0.00,,,0.00,0,weatherlink.com 1.10,2013-07-27 09:48:00,
2013-07-27 02:03:00,62.3,58.0,30.31,SSW,198,0.0,2.0,85,0.00,,,0.00,0,weatherlink.com 1.10,2013-07-27 10:03:00,
2013-07-27 02:18:00,62.0,58.0,30.31,SE,127,0.0,5.0,86,0.00,,,0.00,0,weatherlink.com 1.10,2013-07-27 10:18:00,
2013-07-27 02:33:00,61.9,58.0,30.31,SE,127,0.0,2.0,87,0.00,,,0.00,0,weatherlink.com 1.10,2013-07-27 10:33:00,
2013-07-27 02:48:00,61.7,58.0,30.32,East,93,1.0,5.0,87,0.00,,,0.00,0,weatherlink.com 1.10,2013-07-27 10:48:00,
2013-07-27 03:03:00,61.7,58.0,30.32,East,93,0.0,2.0,88,0.00,,,0.00,0,weatherlink.com 1.10,2013-07-27 11:03:00,
2013-07-27 03:18:00,61.7,58.0,30.33,East,93,0.0,4.0,86,0.00,,,0.00,0,weatherlink.com 1.10,2013-07-27 11:18:00,
2013-07-27 03:33:00,61.6,57.0,30.33,ESE,105,3.0,6.0,84,0.00,,,0.00,0,weatherlink.com 1.10,2013-07-27 11:33:00,
2013-07-27 03:48:00,61.6,56.0,30.32,ESE,105,2.0,5.0,83,0.00,,,0.00,0,weatherlink.com 1.10,2013-07-27 11:48:00,
2013-07-27 04:03:00,61.6,56.0,30.33,ESE,109,0.0,4.0,83,0.00,,,0.00,0,weatherlink.com 1.10,2013-07-27 12:03:00,
2013-07-27 04:18:00,61.7,57.0,30.33,ESE,109,0.0,1.0,84,0.00,,,0.00,0,weatherlink.com 1.10,2013-07-27 12:18:00,
2013-07-27 04:33:00,61.8,57.0,30.33,ESE,109,0.0,4.0,85,0.00,,,0.00,0,weatherlink.com 1.10,2013-07-27 12:33:00,
2013-07-27 04:48:00,61.8,57.0,30.33,ESE,109,0.0,6.0,85,0.00,,,0.00,0,weatherlink.com 1.10,2013-07-27 12:48:00,
2013-07-27 05:03:00,61.6,56.0,30.33,ESE,113,5.0,6.0,83,0.00,,,0.00,0,weatherlink.com 1.10,2013-07-27 13:03:00,
2013-07-27 05:18:00,61.9,56.0,30.33,ESE,113,5.0,5.0,82,0.00,,,0.00,0,weatherlink.com 1.10,2013-07-27 13:18:00,
2013-07-27 05:33:00,62.0,56.0,30.33,SE,126,5.0,6.0,81,0.00,,,0.00,0,weatherlink.com 1.10,2013-07-27 13:33:00,
2013-07-27 05:48:00,61.7,56.0,30.33,SSE,154,1.0,7.0,82,0.00,,,0.00,7,weatherlink.com 1.10,2013-07-27 13:48:00,
2013-07-27 06:03:00,61.5,56.0,30.34,SSE,157,5.0,7.0,82,0.00,,,0.00,11,weatherlink.com 1.10,2013-07-27 14:03:00,
2013-07-27 06:19:00,61.5,56.0,30.34,SSE,157,0.0,5.0,83,0.00,,,0.00,12,weatherlink.com 1.10,2013-07-27 14:19:00,
2013-07-27 06:34:00,60.9,56.0,30.34,South,190,6.0,7.0,85,0.00,,,0.00,18,weatherlink.com 1.10,2013-07-27 14:34:00,
2013-07-27 06:49:00,60.3,57.0,30.34,SW,218,6.0,7.0,87,0.00,,,0.00,21,weatherlink.com 1.10,2013-07-27 14:49:00,
2013-07-27 07:04:00,59.6,56.0,30.35,SW,229,8.0,8.0,89,0.00,,,0.00,32,weatherlink.com 1.10,2013-07-27 15:04:00,
2013-07-27 07:19:00,59.3,56.0,30.35,SW,230,4.0,6.0,89,0.00,,,0.00,32,weatherlink.com 1.10,2013-07-27 15:19:00,
2013-07-27 07:34:00,59.5,56.0,30.35,SW,230,4.0,5.0,89,0.00,,,0.00,44,weatherlink.com 1.10,2013-07-27 15:34:00,
2013-07-27 07:49:00,59.6,56.0,30.35,SW,230,2.0,5.0,89,0.00,,,0.00,56,weatherlink.com 1.10,2013-07-27 15:49:00,
2013-07-27 08:04:00,59.8,56.0,30.35,SW,230,2.0,4.0,88,0.00,,,0.00,69,weatherlink.com 1.10,2013-07-27 16:04:00,
2013-07-27 08:19:00,60.2,57.0,30.35,SW,230,5.0,6.0,88,0.00,,,0.00,77,weatherlink.com 1.10,2013-07-27 16:19:00,
2013-07-27 08:34:00,60.7,57.0,30.35,SW,226,5.0,7.0,86,0.00,,,0.00,104,weatherlink.com 1.10,2013-07-27 16:34:00,
2013-07-27 08:49:00,61.1,57.0,30.36,SW,223,5.0,7.0,86,0.00,,,0.00,102,weatherlink.com 1.10,2013-07-27 16:49:00,
2013-07-27 09:04:00,60.4,57.0,30.36,SW,236,3.0,7.0,87,0.00,,,0.00,107,weatherlink.com 1.10,2013-07-27 17:04:00,
2013-07-27 09:19:00,60.1,57.0,30.36,SW,235,2.0,8.0,89,0.00,,,0.00,95,weatherlink.com 1.10,2013-07-27 17:19:00,
2013-07-27 09:34:00,60.4,57.0,30.36,SW,234,1.0,6.0,88,0.00,,,0.00,98,weatherlink.com 1.10,2013-07-27 17:34:00,
2013-07-27 09:49:00,60.2,57.0,30.36,WSW,238,5.0,6.0,88,0.00,,,0.00,104,weatherlink.com 1.10,2013-07-27 17:49:00,
2013-07-27 10:04:00,60.3,57.0,30.36,WSW,239,5.0,6.0,87,0.00,,,0.00,113,weatherlink.com 1.10,2013-07-27 18:04:00,
2013-07-27 10:19:00,60.5,56.0,30.36,SW,232,7.0,8.0,85,0.00,,,0.00,155,weatherlink.com 1.10,2013-07-27 18:19:00,
2013-07-27 10:34:00,60.6,56.0,30.36,SW,235,5.0,7.0,85,0.00,,,0.00,248,weatherlink.com 1.10,2013-07-27 18:34:00,
2013-07-27 10:49:00,62.1,57.0,30.36,WSW,237,4.0,6.0,82,0.00,,,0.00,271,weatherlink.com 1.10,2013-07-27 18:49:00,
2013-07-27 11:04:00,62.7,57.0,30.36,WSW,254,2.0,6.0,81,0.00,,,0.00,274,weatherlink.com 1.10,2013-07-27 19:04:00,
2013-07-27 11:19:00,62.5,57.0,30.36,WSW,244,4.0,11.0,81,0.00,,,0.00,250,weatherlink.com 1.10,2013-07-27 19:19:00,
2013-07-27 11:34:00,62.5,57.0,30.36,WSW,253,6.0,10.0,81,0.00,,,0.00,239,weatherlink.com 1.10,2013-07-27 19:34:00,
2013-07-27 11:49:00,61.5,56.0,30.36,WSW,248,9.0,10.0,82,0.00,,,0.00,285,weatherlink.com 1.10,2013-07-27 19:49:00,
2013-07-27 12:04:00,61.4,56.0,30.36,SW,236,5.0,12.0,83,0.00,,,0.00,255,weatherlink.com 1.10,2013-07-27 20:04:00,
2013-07-27 12:19:00,61.9,56.0,30.36,SW,229,5.0,10.0,82,0.00,,,0.00,218,weatherlink.com 1.10,2013-07-27 20:19:00,
2013-07-27 12:34:00,62.3,57.0,30.36,WSW,250,1.0,7.0,82,0.00,,,0.00,239,weatherlink.com 1.10,2013-07-27 20:34:00,
2013-07-27 12:49:00,62.6,57.0,30.36,SSW,213,1.0,9.0,83,0.00,,,0.00,283,weatherlink.com 1.10,2013-07-27 20:49:00,
2013-07-27 13:04:00,63.8,58.0,30.36,SW,234,9.0,10.0,80,0.00,,,0.00,269,weatherlink.com 1.10,2013-07-27 21:04:00,
2013-07-27 13:19:00,63.6,57.0,30.36,SW,231,10.0,10.0,79,0.00,,,0.00,149,weatherlink.com 1.10,2013-07-27 21:19:00,
2013-07-27 13:34:00,63.8,58.0,30.35,WSW,237,11.0,11.0,80,0.00,,,0.00,156,weatherlink.com 1.10,2013-07-27 21:34:00,
2013-07-27 13:49:00,64.0,57.0,30.35,West,264,3.0,13.0,79,0.00,,,0.00,134,weatherlink.com 1.10,2013-07-27 21:49:00,
2013-07-27 14:04:00,64.4,57.0,30.35,WSW,258,6.0,12.0,77,0.00,,,0.00,67,weatherlink.com 1.10,2013-07-27 22:04:00,
2013-07-27 14:19:00,64.7,57.0,30.35,SW,229,9.0,13.0,77,0.00,,,0.00,51,weatherlink.com 1.10,2013-07-27 22:19:00,
2013-07-27 14:34:00,65.0,57.0,30.34,SW,220,6.0,12.0,76,0.00,,,0.00,51,weatherlink.com 1.10,2013-07-27 22:34:00,
2013-07-27 14:49:00,64.9,57.0,30.34,SSW,209,8.0,12.0,76,0.00,,,0.00,49,weatherlink.com 1.10,2013-07-27 22:49:00,
2013-07-27 15:04:00,65.7,58.0,30.34,WSW,243,4.0,11.0,76,0.00,,,0.00,47,weatherlink.com 1.10,2013-07-27 23:04:00,
2013-07-27 15:19:00,66.6,58.0,30.34,SW,219,6.0,11.0,74,0.00,,,0.00,47,weatherlink.com 1.10,2013-07-27 23:19:00,
2013-07-27 15:34:00,66.9,58.0,30.34,West,259,7.0,10.0,74,0.00,,,0.00,49,weatherlink.com 1.10,2013-07-27 23:34:00,
2013-07-27 15:49:00,67.5,59.0,30.33,WSW,246,4.0,10.0,73,0.00,,,0.00,418,weatherlink.com 1.10,2013-07-27 23:49:00,
2013-07-27 16:04:00,68.4,59.0,30.33,West,260,7.0,11.0,72,0.00,,,0.00,628,weatherlink.com 1.10,2013-07-28 00:04:00,
2013-07-27 16:19:00,67.9,59.0,30.33,SW,221,7.0,10.0,73,0.00,,,0.00,612,weatherlink.com 1.10,2013-07-28 00:19:00,
2013-07-27 16:34:00,68.5,59.0,30.32,WSW,249,9.0,10.0,72,0.00,,,0.00,54,weatherlink.com 1.10,2013-07-28 00:34:00,
2013-07-27 16:49:00,67.9,59.0,30.32,SW,220,9.0,11.0,73,0.00,,,0.00,234,weatherlink.com 1.10,2013-07-28 00:49:00,
2013-07-27 17:04:00,67.2,59.0,30.32,SW,224,6.0,12.0,75,0.00,,,0.00,522,weatherlink.com 1.10,2013-07-28 01:04:00,
2013-07-27 17:19:00,68.1,60.0,30.32,WSW,239,10.0,11.0,74,0.00,,,0.00,522,weatherlink.com 1.10,2013-07-28 01:19:00,
2013-07-27 17:34:00,68.0,59.0,30.32,SW,227,10.0,13.0,74,0.00,,,0.00,431,weatherlink.com 1.10,2013-07-28 01:34:00,
2013-07-27 17:49:00,67.6,59.0,30.32,WSW,244,11.0,13.0,74,0.00,,,0.00,473,weatherlink.com 1.10,2013-07-28 01:49:00,
2013-07-27 18:04:00,67.1,59.0,30.31,WSW,244,8.0,12.0,75,0.00,,,0.00,431,weatherlink.com 1.10,2013-07-28 02:04:00,
2013-07-27 18:19:00,68.2,60.0,30.31,SW,233,9.0,11.0,74,0.00,,,0.00,132,weatherlink.com 1.10,2013-07-28 02:19:00,
2013-07-27 18:34:00,67.8,59.0,30.31,SW,225,9.0,12.0,74,0.00,,,0.00,410,weatherlink.com 1.10,2013-07-28 02:34:00,
2013-07-27 18:49:00,68.3,60.0,30.31,SW,234,8.0,11.0,74,0.00,,,0.00,362,weatherlink.com 1.10,2013-07-28 02:49:00,
2013-07-27 19:05:00,67.9,60.0,30.31,SW,230,8.0,11.0,75,0.00,,,0.00,346,weatherlink.com 1.10,2013-07-28 03:05:00,
2013-07-27 19:20:00,68.7,59.0,30.31,SW,229,4.0,13.0,72,0.00,,,0.00,279,weatherlink.com 1.10,2013-07-28 03:20:00,
2013-07-27 19:35:00,67.5,59.0,30.31,SSW,198,11.0,12.0,73,0.00,,,0.00,281,weatherlink.com 1.10,2013-07-28 03:35:00,
2013-07-27 19:50:00,67.7,59.0,30.30,SW,233,4.0,11.0,73,0.00,,,0.00,239,weatherlink.com 1.10,2013-07-28 03:50:00,
2013-07-27 20:05:00,67.8,59.0,30.30,SSW,207,8.0,10.0,74,0.00,,,0.00,227,weatherlink.com 1.10,2013-07-28 04:05:00,
2013-07-27 20:20:00,67.4,59.0,30.30,SSW,192,8.0,11.0,74,0.00,,,0.00,197,weatherlink.com 1.10,2013-07-28 04:20:00,
2013-07-27 20:35:00,66.4,58.0,30.31,South,190,8.0,12.0,75,0.00,,,0.00,165,weatherlink.com 1.10,2013-07-28 04:35:00,
2013-07-27 20:50:00,66.3,58.0,30.31,WSW,246,6.0,11.0,75,0.00,,,0.00,107,weatherlink.com 1.10,2013-07-28 04:50:00,
2013-07-27 21:05:00,66.3,58.0,30.30,SSW,207,5.0,10.0,74,0.00,,,0.00,104,weatherlink.com 1.10,2013-07-28 05:05:00,
2013-07-27 21:20:00,65.6,58.0,30.30,SSW,198,11.0,12.0,75,0.00,,,0.00,77,weatherlink.com 1.10,2013-07-28 05:20:00,
2013-07-27 21:35:00,65.5,58.0,30.30,SW,215,5.0,10.0,76,0.00,,,0.00,54,weatherlink.com 1.10,2013-07-28 05:35:00,
2013-07-27 21:50:00,65.5,58.0,30.30,SW,229,2.0,8.0,77,0.00,,,0.00,37,weatherlink.com 1.10,2013-07-28 05:50:00,
2013-07-27 22:05:00,64.6,58.0,30.30,SSW,197,2.0,8.0,78,0.00,,,0.00,23,weatherlink.com 1.10,2013-07-28 06:05:00,
2013-07-27 22:20:00,64.1,57.0,30.30,SSW,200,0.0,7.0,79,0.00,,,0.00,16,weatherlink.com 1.10,2013-07-28 06:20:00,
2013-07-27 22:35:00,64.0,57.0,30.30,SSW,192,4.0,4.0,79,0.00,,,0.00,11,weatherlink.com 1.10,2013-07-28 06:35:00,
2013-07-27 22:50:00,63.9,58.0,30.30,ESE,119,1.0,6.0,80,0.00,,,0.00,5,weatherlink.com 1.10,2013-07-28 06:50:00,
2013-07-27 23:05:00,63.9,58.0,30.30,ESE,118,0.0,1.0,80,0.00,,,0.00,0,weatherlink.com 1.10,2013-07-28 07:05:00,
2013-07-27 23:20:00,63.8,57.0,30.31,ESE,121,2.0,4.0,79,0.00,,,0.00,0,weatherlink.com 1.10,2013-07-28 07:20:00,
2013-07-27 23:35:00,63.4,57.0,30.31,ESE,113,0.0,4.0,80,0.00,,,0.00,0,weatherlink.com 1.10,2013-07-28 07:35:00,
2013-07-27 23:50:00,63.2,58.0,30.31,ESE,111,4.0,4.0,82,0.00,,,0.00,0,weatherlink.com 1.10,2013-07-28 07:50:00,